Flight Track Log - Related Links

Times and Time Zones

All times are in EDT time to prevent confusion due to time zone crossing. See the SKW5398 flight status page for this flight to view local times or setup timezone preferences in your user account.

Time Position Orientation Groundspeed Altitude Reporting Facility
EDT Latitude Longitude Course Direction KTS MPH feet Rate Location/Type
Thu 10:15:58 AM 37.6500 -122.3500 32° Northeast 157 181 2,100  Level Northern Cal TRACON
Thu 10:16:58 AM 37.7000 -122.3167 28° Northeast 184 212 3,700 1,429 Climbing Northern Cal TRACON
Thu 10:17:22 AM 37.7083 -122.3169 358° North 173 199 4,100 1,694 Climbing Oakland Center
Thu 10:18:23 AM 37.7644 -122.2750 31° Northeast 193 222 6,100 1,820 Climbing Oakland Center
Thu 10:19:00 AM 37.6949 -122.3043 32° Northeast  Level FlightAware Approximate
Thu 10:19:24 AM 37.8106 -122.2353 34° Northeast 199 229 7,800  Level Oakland Center
Thu 10:20:00 AM 37.8049 -122.2164 32° Northeast  Level FlightAware Approximate
Thu 10:20:25 AM 37.8606 -122.1936 33° Northeast 212 244 9,400  Level Oakland Center
Thu 10:21:00 AM 37.8571 -122.1746 32° Northeast  Level FlightAware Approximate
Thu 10:21:26 AM 37.9114 -122.1497 34° Northeast 220 253 10,700  Level Oakland Center
Thu 10:22:27 AM 37.9636 -122.1025 35° Northeast 230 265 10,900 98 Climbing Oakland Center
Thu 10:23:29 AM 38.0228 -122.0583 30° Northeast 245 282 10,900 49 Level Oakland Center
Thu 10:24:30 AM 38.0831 -122.0100 32° Northeast 255 293 11,000 49 Climbing Oakland Center
Thu 10:25:31 AM 38.1403 -121.9544 37° Northeast 259 298 11,000  Level Oakland Center
Thu 10:26:32 AM 38.1975 -121.8969 38° Northeast 261 300 11,000  Level Oakland Center
Thu 10:27:33 AM 38.2678 -121.8308 36° Northeast 261 300 11,000 -244 Level Oakland Center
Thu 10:28:35 AM 38.3275 -121.7761 36° Northeast 263 303 10,500 -878 Descending Oakland Center
Thu 10:29:36 AM 38.3833 -121.7208 38° Northeast 256 295 9,200 -1,574 Descending Oakland Center
Thu 10:30:37 AM 38.4369 -121.6653 39° Northeast 251 289 7,300 -1,951 Descending Oakland Center
Thu 10:31:39 AM 38.4914 -121.6125 37° Northeast 244 281 5,200 -2,370 Descending Oakland Center
Thu 10:31:58 AM 38.5167 -121.6000 21° North 248 285 4,100 -2,203 Descending Northern Cal TRACON
Thu 10:32:58 AM 38.5833 -121.5833 11° North 226 260 2,300 -1,800 Descending Northern Cal TRACON

Login

Don't have an account? Register now (free) for customized features, flight alerts, and more!